Time;durP1;ratioP1;P1;durP2;ratioP2;P2;SDS_P1;SDS_P2;PMS_P1;PMS_P2;Temp;Humidity;BMP_temperature;BMP_pressure;BME280_temperature;BME280_humidity;BME280_pressure;Samples;Min_cycle;Max_cycle;Signal;HPM_P1;HPM_P2
2023/06/10 00:02:13;;;;;;;12.85;4.90;;;17.50;92.30;;;;;;5021334;28;20048;-88
2023/06/10 00:04:38;;;;;;;10.90;4.50;;;18.10;92.60;;;;;;5037749;28;20143;-89
2023/06/10 00:07:09;;;;;;;10.23;4.40;;;17.70;92.60;;;;;;5037110;28;20040;-89
2023/06/10 00:09:38;;;;;;;10.02;4.47;;;17.40;92.60;;;;;;5037764;28;20048;-89
2023/06/10 00:12:09;;;;;;;9.63;4.30;;;17.40;93.00;;;;;;5055426;28;20057;-88
2023/06/10 00:14:38;;;;;;;11.05;4.25;;;17.30;92.90;;;;;;5036803;28;20040;-88
2023/06/10 00:17:04;;;;;;;12.55;4.82;;;17.30;93.00;;;;;;5037184;28;20049;-88
2023/06/10 00:19:30;;;;;;;10.05;4.43;;;17.20;93.00;;;;;;5036785;28;20052;-88
2023/06/10 00:21:56;;;;;;;10.80;4.63;;;17.40;93.30;;;;;;5037109;28;20412;-88
2023/06/10 00:24:22;;;;;;;10.73;4.72;;;17.30;93.30;;;;;;5037067;28;20045;-89
2023/06/10 00:26:48;;;;;;;12.88;4.68;;;17.10;93.40;;;;;;5036840;28;20446;-88
2023/06/10 00:29:14;;;;;;;10.57;4.57;;;17.10;93.50;;;;;;5054422;28;20052;-88
2023/06/10 00:31:40;;;;;;;12.35;4.75;;;17.40;93.70;;;;;;5037322;28;20064;-89
2023/06/10 00:34:07;;;;;;;13.32;4.60;;;17.00;93.70;;;;;;5053766;28;20080;-89
2023/06/10 00:36:32;;;;;;;11.85;4.75;;;17.00;93.90;;;;;;5037251;28;20455;-89
2023/06/10 00:38:58;;;;;;;13.25;4.72;;;17.50;94.10;;;;;;5054940;28;20137;-88
2023/06/10 00:41:26;;;;;;;12.15;4.80;;;17.00;94.20;;;;;;5053685;28;20033;-88
2023/06/10 00:43:51;;;;;;;10.68;4.57;;;16.90;94.30;;;;;;5036948;28;20052;-88
2023/06/10 00:46:18;;;;;;;11.52;4.85;;;17.00;94.50;;;;;;5036457;28;20044;-88
2023/06/10 00:48:44;;;;;;;12.60;4.97;;;17.00;94.50;;;;;;5054093;28;20056;-89
2023/06/10 00:51:10;;;;;;;12.90;5.25;;;16.90;94.70;;;;;;5036615;28;20068;-88
2023/06/10 00:53:41;;;;;;;12.40;5.35;;;16.80;94.70;;;;;;5036628;28;20048;-89
2023/06/10 00:56:07;;;;;;;10.32;4.60;;;17.20;95.20;;;;;;5035295;28;20041;-89
2023/06/10 00:58:33;;;;;;;15.90;5.00;;;16.80;95.00;;;;;;5036484;28;20425;-88
2023/06/10 01:00:59;;;;;;;10.95;4.45;;;16.80;95.10;;;;;;5036760;28;20045;-89
2023/06/10 01:03:25;;;;;;;10.73;5.00;;;17.00;95.20;;;;;;5053351;28;20095;-88
2023/06/10 01:06:01;;;;;;;13.30;4.70;;;16.70;95.30;;;;;;5036660;28;20103;-89
2023/06/10 01:08:42;;;;;;;11.32;4.70;;;16.70;95.60;;;;;;5036358;28;20408;-89
2023/06/10 01:11:20;;;;;;;11.15;4.50;;;16.70;96.10;;;;;;5053287;28;20045;-88
2023/06/10 01:13:51;;;;;;;11.20;5.28;;;16.60;95.60;;;;;;5054307;28;20048;-88
2023/06/10 01:16:18;;;;;;;12.30;5.10;;;16.60;95.70;;;;;;5034747;28;20044;-88
2023/06/10 01:18:44;;;;;;;12.52;5.18;;;16.60;95.80;;;;;;5053932;28;20053;-89
2023/06/10 01:21:13;;;;;;;13.07;5.88;;;16.50;95.90;;;;;;5035973;28;20436;-88
2023/06/10 01:23:39;;;;;;;12.55;5.78;;;16.70;96.60;;;;;;5053216;28;20120;-89
2023/06/10 01:26:10;;;;;;;14.52;5.90;;;16.60;96.20;;;;;;5036067;28;20187;-88
2023/06/10 01:28:53;;;;;;;11.90;5.97;;;16.50;96.40;;;;;;5035855;28;20087;-88
2023/06/10 01:31:45;;;;;;;14.02;5.93;;;16.40;96.70;;;;;;5035161;28;20056;-88
2023/06/10 01:34:14;;;;;;;11.63;5.50;;;16.30;97.20;;;;;;5035838;28;20056;-88
2023/06/10 01:36:43;;;;;;;14.43;6.00;;;16.30;96.80;;;;;;5053596;28;20550;-88
2023/06/10 01:39:11;;;;;;;14.60;5.80;;;16.40;97.10;;;;;;5035004;28;20092;-89
2023/06/10 01:41:37;;;;;;;14.32;6.18;;;16.20;97.10;;;;;;5036583;28;20037;-89
2023/06/10 01:44:03;;;;;;;12.30;5.95;;;16.20;97.30;;;;;;5054914;28;20436;-88
2023/06/10 01:46:29;;;;;;;13.32;5.93;;;16.10;97.40;;;;;;5053131;28;20496;-88
2023/06/10 01:48:54;;;;;;;12.40;6.25;;;16.10;97.60;;;;;;5053370;28;20053;-89
2023/06/10 01:51:20;;;;;;;15.60;6.25;;;16.10;97.70;;;;;;5034754;28;20093;-88
2023/06/10 01:53:45;;;;;;;13.02;5.97;;;16.00;97.80;;;;;;5035467;28;20084;-88
2023/06/10 01:56:16;;;;;;;14.52;6.25;;;16.00;97.90;;;;;;5035075;28;20041;-89
2023/06/10 01:58:42;;;;;;;11.88;6.18;;;16.70;98.40;;;;;;5034462;28;20052;-89
2023/06/10 02:01:07;;;;;;;14.18;6.45;;;16.20;98.40;;;;;;5046777;28;20033;-88
2023/06/10 02:03:33;;;;;;;17.17;6.68;;;15.80;98.50;;;;;;5015802;28;20469;-89
2023/06/10 02:05:59;;;;;;;16.15;6.50;;;15.80;98.70;;;;;;5032068;28;20516;-88
2023/06/10 02:08:24;;;;;;;14.05;6.40;;;15.80;99.00;;;;;;5015450;28;20038;-88
2023/06/10 02:10:50;;;;;;;21.10;6.72;;;15.70;99.00;;;;;;5015681;28;20374;-88
2023/06/10 02:13:16;;;;;;;13.45;5.88;;;15.60;99.50;;;;;;5014244;28;20084;-88
2023/06/10 02:15:41;;;;;;;13.27;6.38;;;15.60;99.40;;;;;;5032942;28;20049;-89
2023/06/10 02:18:07;;;;;;;13.65;6.60;;;15.60;99.60;;;;;;5015074;28;20041;-88
2023/06/10 02:20:32;;;;;;;11.38;6.00;;;15.50;99.70;;;;;;5014517;28;20048;-88
2023/06/10 02:22:58;;;;;;;12.77;6.10;;;16.10;99.90;;;;;;5015548;28;20080;-88
2023/06/10 02:25:24;;;;;;;13.77;6.43;;;15.40;99.90;;;;;;5015033;28;20096;-88
2023/06/10 02:27:50;;;;;;;18.15;6.85;;;15.40;99.90;;;;;;5013573;28;20044;-88
2023/06/10 02:30:16;;;;;;;16.05;6.30;;;15.70;99.90;;;;;;5032783;28;20137;-88
2023/06/10 02:32:41;;;;;;;16.40;6.53;;;15.30;99.90;;;;;;5033072;28;20041;-88
2023/06/10 02:35:07;;;;;;;12.73;6.28;;;15.90;99.90;;;;;;5032007;28;20041;-88
2023/06/10 02:37:32;;;;;;;14.65;6.38;;;15.20;99.90;;;;;;5032947;28;20128;-88
2023/06/10 02:39:58;;;;;;;12.80;6.35;;;15.10;99.90;;;;;;5032608;28;20046;-88
2023/06/10 02:42:24;;;;;;;14.65;6.30;;;15.30;99.90;;;;;;5013818;28;20045;-89
2023/06/10 02:44:49;;;;;;;12.73;5.90;;;15.50;99.90;;;;;;5015296;28;20145;-88
2023/06/10 02:47:15;;;;;;;14.90;6.40;;;15.20;99.90;;;;;;5031456;28;20058;-88
2023/06/10 02:49:40;;;;;;;16.00;6.50;;;14.90;99.90;;;;;;5014943;28;20462;-89
2023/06/10 02:52:07;;;;;;;13.05;6.55;;;15.50;99.90;;;;;;5014724;28;20042;-89
2023/06/10 02:54:33;;;;;;;14.55;6.25;;;14.90;99.90;;;;;;5032840;28;20069;-89
2023/06/10 02:56:59;;;;;;;12.93;5.90;;;14.80;99.90;;;;;;5056999;28;20025;-88
2023/06/10 02:59:26;;;;;;;12.93;5.82;;;15.30;99.90;;;;;;5048687;28;20051;-88
2023/06/10 03:01:52;;;;;;;14.18;5.85;;;14.70;99.90;;;;;;5036307;28;20052;-89
2023/06/10 03:04:18;;;;;;;13.25;6.00;;;14.60;99.90;;;;;;5016171;28;20053;-89
2023/06/10 03:06:45;;;;;;;12.40;5.95;;;15.00;99.90;;;;;;5015246;28;20049;-88
2023/06/10 03:09:11;;;;;;;12.18;6.20;;;14.90;99.90;;;;;;5031908;28;20049;-88
2023/06/10 03:11:36;;;;;;;13.93;6.03;;;14.60;99.90;;;;;;5032602;28;20041;-89
2023/06/10 03:14:02;;;;;;;17.50;6.35;;;14.60;99.90;;;;;;5015017;28;20052;-89
2023/06/10 03:16:30;;;;;;;13.27;6.22;;;14.50;99.90;;;;;;5013925;28;20060;-88
2023/06/10 03:18:55;;;;;;;14.05;6.03;;;14.50;99.90;;;;;;5032566;28;20045;-88
2023/06/10 03:21:21;;;;;;;16.88;6.38;;;14.50;99.90;;;;;;5014547;28;20382;-88
2023/06/10 03:23:47;;;;;;;12.25;5.75;;;14.40;99.90;;;;;;5014207;28;20083;-88
2023/06/10 03:26:14;;;;;;;12.02;6.13;;;14.90;99.90;;;;;;5014477;28;20037;-88
2023/06/10 03:28:40;;;;;;;14.60;6.25;;;14.40;99.90;;;;;;5014915;28;20552;-89
2023/06/10 03:31:05;;;;;;;14.02;6.32;;;14.40;99.90;;;;;;5014019;28;20132;-89
2023/06/10 03:33:32;;;;;;;13.27;6.32;;;14.40;99.90;;;;;;5032972;28;20069;-88
2023/06/10 03:35:57;;;;;;;16.25;6.30;;;14.50;99.90;;;;;;5016463;28;20042;-89
2023/06/10 03:38:23;;;;;;;13.35;6.10;;;14.70;99.90;;;;;;5035302;28;20037;-89
2023/06/10 03:40:49;;;;;;;14.02;6.05;;;14.30;99.90;;;;;;5035354;28;20042;-89
2023/06/10 03:43:14;;;;;;;14.98;6.25;;;15.00;99.90;;;;;;5018281;28;20148;-88
2023/06/10 03:45:41;;;;;;;12.95;5.53;;;14.80;99.90;;;;;;5035004;28;20500;-88
2023/06/10 03:48:08;;;;;;;16.10;5.78;;;14.30;99.90;;;;;;5018076;28;20432;-88
2023/06/10 03:50:34;;;;;;;12.38;6.30;;;14.80;99.90;;;;;;5017496;28;20050;-87
2023/06/10 03:52:59;;;;;;;12.80;6.22;;;14.40;99.90;;;;;;5018243;28;20408;-89
2023/06/10 03:55:25;;;;;;;14.65;6.20;;;14.30;99.90;;;;;;5035375;28;20045;-88
2023/06/10 03:57:51;;;;;;;14.68;6.00;;;14.50;99.90;;;;;;5035118;28;20547;-89
2023/06/10 04:00:17;;;;;;;12.40;6.07;;;14.60;99.90;;;;;;5035885;28;20041;-87
2023/06/10 04:02:47;;;;;;;15.68;6.18;;;14.20;99.90;;;;;;5028276;28;20484;-88
2023/06/10 04:05:13;;;;;;;13.20;6.25;;;14.70;99.90;;;;;;5053904;28;20068;-87
2023/06/10 04:07:40;;;;;;;11.98;5.60;;;14.40;99.90;;;;;;5037002;28;20048;-88
2023/06/10 04:10:07;;;;;;;13.63;6.05;;;14.80;99.90;;;;;;5037084;28;20570;-88
2023/06/10 04:12:33;;;;;;;14.55;6.10;;;14.20;99.90;;;;;;5054700;28;20041;-88
2023/06/10 04:14:59;;;;;;;14.18;6.38;;;15.10;99.90;;;;;;5055380;28;20053;-88
2023/06/10 04:17:25;;;;;;;14.07;5.80;;;14.30;99.90;;;;;;5036924;28;20501;-88
2023/06/10 04:19:51;;;;;;;13.10;6.07;;;14.30;99.90;;;;;;5036685;28;20045;-88
2023/06/10 04:22:17;;;;;;;13.68;5.88;;;14.30;99.90;;;;;;5055049;28;20366;-88
2023/06/10 04:24:43;;;;;;;12.38;5.90;;;14.90;99.90;;;;;;5037137;28;20053;-88
2023/06/10 04:27:10;;;;;;;13.82;5.75;;;14.40;99.90;;;;;;5053973;28;20374;-88
2023/06/10 04:29:36;;;;;;;13.52;5.97;;;14.70;99.90;;;;;;5043276;23;20462;-88
2023/06/10 04:32:01;;;;;;;12.68;6.13;;;14.50;99.90;;;;;;5054948;28;20052;-88
2023/06/10 04:34:27;;;;;;;14.93;6.20;;;14.50;99.90;;;;;;5053824;28;20052;-87
2023/06/10 04:36:53;;;;;;;12.32;6.35;;;14.60;99.90;;;;;;5054998;28;20056;-89
2023/06/10 04:39:19;;;;;;;12.07;5.90;;;15.10;99.90;;;;;;5054520;28;20045;-88
2023/06/10 04:41:46;;;;;;;13.48;6.25;;;14.90;99.90;;;;;;5054191;28;20052;-88
2023/06/10 04:44:12;;;;;;;15.07;6.28;;;14.60;99.90;;;;;;5054090;28;20051;-88
2023/06/10 04:46:38;;;;;;;12.40;6.05;;;15.30;99.90;;;;;;5036708;28;20049;-88
2023/06/10 04:49:04;;;;;;;12.73;6.30;;;14.80;99.90;;;;;;5054036;28;20047;-87
2023/06/10 04:51:33;;;;;;;16.70;6.40;;;14.70;99.90;;;;;;5035635;28;20484;-88
2023/06/10 04:54:02;;;;;;;14.00;5.60;;;15.00;99.90;;;;;;5053505;28;20513;-88
2023/06/10 04:56:28;;;;;;;12.95;6.55;;;15.10;99.90;;;;;;5054160;28;20045;-88
2023/06/10 04:58:54;;;;;;;13.93;5.93;;;14.90;99.90;;;;;;5054614;28;20136;-87
2023/06/10 05:01:19;;;;;;;13.57;6.20;;;15.00;99.90;;;;;;5035445;28;20128;-88
2023/06/10 05:03:45;;;;;;;15.75;6.40;;;15.50;99.90;;;;;;5036601;28;20041;-88
2023/06/10 05:06:11;;;;;;;12.25;5.88;;;15.00;99.90;;;;;;5054418;28;20044;-88
2023/06/10 05:08:36;;;;;;;14.52;6.00;;;15.00;99.90;;;;;;5053669;28;20068;-87
2023/06/10 05:11:10;;;;;;;16.48;6.50;;;15.10;99.90;;;;;;5058678;28;20120;-87
2023/06/10 05:13:36;;;;;;;13.27;6.13;;;15.50;99.90;;;;;;5057241;28;20149;-87
2023/06/10 05:16:02;;;;;;;15.27;7.03;;;15.20;99.90;;;;;;5053543;28;20112;-88
2023/06/10 05:18:27;;;;;;;13.88;6.22;;;15.20;99.90;;;;;;5035839;28;20045;-88
2023/06/10 05:20:53;;;;;;;16.95;6.32;;;15.30;99.90;;;;;;5054089;28;20048;-88
2023/06/10 05:23:19;;;;;;;15.27;6.22;;;15.30;99.90;;;;;;5053116;28;20045;-87
2023/06/10 05:25:45;;;;;;;13.80;5.95;;;16.10;99.90;;;;;;5054027;28;20072;-88
2023/06/10 05:28:11;;;;;;;12.20;6.05;;;15.40;99.90;;;;;;5054250;28;20075;-87
2023/06/10 05:30:37;;;;;;;15.93;6.00;;;15.50;99.90;;;;;;5045283;28;20045;-88
2023/06/10 05:33:04;;;;;;;16.60;6.63;;;15.50;99.90;;;;;;5054573;28;20423;-88
2023/06/10 05:35:30;;;;;;;13.98;6.10;;;15.60;99.90;;;;;;5053332;28;20044;-88
2023/06/10 05:37:55;;;;;;;14.70;6.38;;;15.60;99.90;;;;;;5052698;28;20370;-88
2023/06/10 05:40:21;;;;;;;15.38;6.20;;;15.60;99.90;;;;;;5053504;28;20049;-89
2023/06/10 05:42:47;;;;;;;14.15;6.70;;;15.70;99.90;;;;;;5052423;28;20542;-88
2023/06/10 05:45:12;;;;;;;15.27;6.15;;;15.80;99.90;;;;;;5052575;28;20041;-88
2023/06/10 05:47:38;;;;;;;13.10;6.15;;;16.10;99.90;;;;;;5052129;28;20045;-88
2023/06/10 05:50:07;;;;;;;14.80;6.70;;;15.90;99.90;;;;;;5053166;28;20048;-88
2023/06/10 05:52:33;;;;;;;13.73;6.20;;;15.90;99.90;;;;;;5051839;28;20049;-89
2023/06/10 05:55:03;;;;;;;13.85;6.28;;;16.00;99.90;;;;;;5053416;28;20045;-89
2023/06/10 05:57:29;;;;;;;14.15;6.30;;;16.10;99.90;;;;;;5052337;28;20053;-88
2023/06/10 05:59:54;;;;;;;17.55;6.32;;;16.10;99.90;;;;;;5052196;28;20488;-88
2023/06/10 06:02:20;;;;;;;13.70;5.70;;;16.50;99.90;;;;;;5054520;28;20107;-88
2023/06/10 06:04:46;;;;;;;14.60;5.97;;;16.30;99.90;;;;;;5058409;28;20089;-89
2023/06/10 06:07:11;;;;;;;12.52;5.75;;;16.30;99.90;;;;;;5077174;28;20131;-89
2023/06/10 06:09:37;;;;;;;14.27;6.63;;;16.30;99.90;;;;;;5061410;28;20044;-88
2023/06/10 06:12:03;;;;;;;14.10;5.82;;;16.40;99.90;;;;;;5054480;28;20361;-88
2023/06/10 06:14:31;;;;;;;11.65;5.97;;;16.60;99.90;;;;;;5053489;28;20048;-88
2023/06/10 06:16:57;;;;;;;12.80;6.10;;;16.60;99.90;;;;;;5054650;28;20044;-88
2023/06/10 06:19:23;;;;;;;12.13;5.57;;;16.70;99.90;;;;;;5053556;28;20102;-88
2023/06/10 06:21:48;;;;;;;13.18;5.78;;;17.00;99.90;;;;;;5052313;28;20036;-88
2023/06/10 06:24:15;;;;;;;14.30;6.07;;;16.90;99.90;;;;;;5051880;28;20045;-89
2023/06/10 06:26:41;;;;;;;11.77;5.97;;;17.00;99.90;;;;;;5051062;28;20040;-88
2023/06/10 06:29:06;;;;;;;13.55;5.90;;;17.00;99.90;;;;;;5053133;28;20078;-88
2023/06/10 06:31:32;;;;;;;12.23;5.88;;;17.10;99.90;;;;;;5051562;28;20048;-88
2023/06/10 06:33:58;;;;;;;14.38;6.30;;;17.30;99.90;;;;;;5051143;28;20049;-89
2023/06/10 06:36:23;;;;;;;13.52;6.10;;;17.20;99.90;;;;;;5051784;28;20048;-89
2023/06/10 06:38:49;;;;;;;12.63;5.90;;;17.20;99.90;;;;;;5051817;28;20547;-88
2023/06/10 06:41:15;;;;;;;13.05;5.38;;;17.30;99.90;;;;;;5050654;28;20037;-89
2023/06/10 06:43:42;;;;;;;13.45;6.15;;;17.40;99.90;;;;;;5051749;28;20479;-88
2023/06/10 06:46:07;;;;;;;16.40;6.40;;;17.40;99.90;;;;;;5051719;28;20045;-88
2023/06/10 06:48:33;;;;;;;14.20;6.00;;;17.60;99.90;;;;;;5050526;28;20057;-89
2023/06/10 06:50:58;;;;;;;13.25;6.38;;;17.60;99.90;;;;;;5052790;28;20044;-88
2023/06/10 06:53:25;;;;;;;14.18;5.90;;;18.00;99.90;;;;;;5050540;28;20064;-87
2023/06/10 06:55:51;;;;;;;11.98;5.40;;;17.80;99.90;;;;;;5052599;28;20047;-89
2023/06/10 06:58:16;;;;;;;12.80;5.75;;;18.00;99.90;;;;;;5050938;28;20044;-88
2023/06/10 07:00:42;;;;;;;13.82;6.03;;;18.20;99.90;;;;;;5051757;28;20037;-83
2023/06/10 07:03:08;;;;;;;14.13;5.95;;;18.60;99.90;;;;;;5052303;28;20041;-83
2023/06/10 07:05:33;;;;;;;13.55;5.90;;;18.50;99.90;;;;;;5051383;28;20033;-84
2023/06/10 07:07:59;;;;;;;13.35;5.60;;;18.70;99.90;;;;;;5051677;28;20041;-84
2023/06/10 07:10:28;;;;;;;11.85;5.40;;;18.70;99.90;;;;;;5050681;28;20044;-83
2023/06/10 07:12:54;;;;;;;13.90;6.03;;;18.80;99.90;;;;;;5050931;28;20036;-83
2023/06/10 07:15:19;;;;;;;14.25;6.00;;;18.90;99.90;;;;;;5054313;28;20055;-84
2023/06/10 07:17:45;;;;;;;13.23;5.97;;;19.10;99.90;;;;;;5056070;28;20074;-84
2023/06/10 07:20:11;;;;;;;12.63;6.50;;;19.20;99.90;;;;;;5055922;28;20041;-84
2023/06/10 07:22:38;;;;;;;14.00;6.07;;;19.30;99.90;;;;;;5055631;28;20159;-84
2023/06/10 07:25:08;;;;;;;12.07;5.78;;;19.30;99.90;;;;;;5054976;28;20115;-84
2023/06/10 07:27:33;;;;;;;12.75;5.70;;;19.50;99.90;;;;;;5055980;28;20047;-83
2023/06/10 07:30:00;;;;;;;14.35;5.75;;;19.60;99.90;;;;;;5055242;28;20053;-83
2023/06/10 07:32:26;;;;;;;14.60;6.93;;;19.90;99.90;;;;;;5055611;28;20404;-84
2023/06/10 07:34:52;;;;;;;13.15;5.70;;;19.80;99.90;;;;;;5055859;28;20048;-83
2023/06/10 07:37:19;;;;;;;16.52;6.43;;;19.90;99.90;;;;;;5053408;28;20041;-83
2023/06/10 07:39:45;;;;;;;12.55;6.43;;;20.10;99.90;;;;;;5055848;28;20044;-84
2023/06/10 07:42:10;;;;;;;12.27;6.10;;;20.10;99.90;;;;;;5054135;28;20232;-84
2023/06/10 07:44:39;;;;;;;13.07;6.30;;;20.10;99.90;;;;;;5054916;28;20388;-84
2023/06/10 07:47:05;;;;;;;14.35;6.35;;;20.20;99.90;;;;;;5054444;28;20037;-83
2023/06/10 07:49:31;;;;;;;12.90;6.28;;;20.30;99.90;;;;;;5054279;28;20091;-84
2023/06/10 07:51:57;;;;;;;14.10;7.10;;;20.40;99.90;;;;;;5053438;28;20396;-83
2023/06/10 07:54:22;;;;;;;15.65;7.78;;;20.60;99.90;;;;;;5055086;28;20056;-84
2023/06/10 07:56:48;;;;;;;13.52;7.35;;;20.90;99.90;;;;;;5053408;28;20064;-83
2023/06/10 07:59:14;;;;;;;14.52;7.88;;;20.70;99.90;;;;;;5055159;28;20037;-83
2023/06/10 08:01:40;;;;;;;17.15;8.50;;;20.80;99.90;;;;;;5055621;28;20051;-84
2023/06/10 08:04:06;;;;;;;15.73;8.50;;;21.00;99.90;;;;;;5053049;28;20056;-84
2023/06/10 08:06:32;;;;;;;15.80;8.98;;;21.00;99.90;;;;;;5054123;28;20408;-83
2023/06/10 08:08:57;;;;;;;14.48;8.40;;;21.00;99.90;;;;;;5053762;28;20041;-84
2023/06/10 08:11:23;;;;;;;16.30;8.60;;;21.20;99.90;;;;;;5052609;28;20506;-84
2023/06/10 08:13:49;;;;;;;16.77;8.80;;;21.10;99.90;;;;;;5055098;28;20045;-83
2023/06/10 08:16:14;;;;;;;14.40;9.20;;;21.30;99.90;;;;;;5055057;28;20037;-84
2023/06/10 08:18:40;;;;;;;14.45;8.20;;;21.40;99.90;;;;;;5053051;28;20098;-84
2023/06/10 08:21:06;;;;;;;16.33;9.07;;;21.50;99.90;;;;;;5054673;28;20044;-83
2023/06/10 08:23:31;;;;;;;16.42;8.63;;;21.60;99.90;;;;;;5053941;28;20041;-84
2023/06/10 08:25:57;;;;;;;18.23;9.05;;;21.70;99.90;;;;;;5052760;28;20532;-84
2023/06/10 08:28:23;;;;;;;16.05;9.02;;;21.90;99.90;;;;;;5054648;28;20473;-84
2023/06/10 08:30:49;;;;;;;16.42;8.85;;;22.10;99.90;;;;;;5054691;28;20098;-83
2023/06/10 08:33:14;;;;;;;16.80;8.77;;;22.20;99.90;;;;;;5052437;28;20081;-83
2023/06/10 08:35:40;;;;;;;17.90;9.32;;;22.20;99.90;;;;;;5053346;28;20090;-84
2023/06/10 08:38:06;;;;;;;15.38;8.77;;;22.40;99.90;;;;;;5054653;28;20090;-84
2023/06/10 08:40:32;;;;;;;16.58;9.73;;;22.50;99.30;;;;;;5053528;28;20045;-84
2023/06/10 08:43:14;;;;;;;12.48;7.90;;;22.50;99.60;;;;;;5054449;28;20091;-84
2023/06/10 08:45:46;;;;;;;12.57;7.78;;;22.80;98.90;;;;;;5053381;28;20076;-83
2023/06/10 08:48:14;;;;;;;15.20;7.82;;;22.90;99.00;;;;;;5053910;28;20037;-83
2023/06/10 08:50:40;;;;;;;14.52;8.38;;;23.10;98.60;;;;;;5053191;28;20141;-84
2023/06/10 08:53:07;;;;;;;15.50;8.55;;;23.20;98.10;;;;;;5053646;28;20040;-84
2023/06/10 08:55:35;;;;;;;16.35;8.50;;;23.20;97.80;;;;;;5054277;28;20056;-83
2023/06/10 08:58:01;;;;;;;13.25;8.05;;;23.40;97.50;;;;;;5054516;28;20045;-84
2023/06/10 09:00:28;;;;;;;13.05;7.13;;;23.40;97.20;;;;;;5053447;28;20041;-84
2023/06/10 09:02:55;;;;;;;11.50;6.90;;;23.50;96.60;;;;;;5052958;28;20044;-84
2023/06/10 09:05:21;;;;;;;14.93;7.78;;;23.60;96.30;;;;;;5052683;28;20055;-84
2023/06/10 09:07:48;;;;;;;10.88;6.43;;;23.60;96.10;;;;;;5052093;28;20049;-84
2023/06/10 09:10:14;;;;;;;11.88;6.28;;;23.60;95.50;;;;;;5053948;28;20049;-84
2023/06/10 09:12:40;;;;;;;11.52;6.50;;;24.00;95.40;;;;;;5053912;28;20098;-83
2023/06/10 09:15:07;;;;;;;12.75;6.45;;;23.90;95.10;;;;;;5052207;28;20033;-83
2023/06/10 09:17:33;;;;;;;13.32;6.80;;;24.00;94.90;;;;;;5052680;28;20041;-84
2023/06/10 09:20:02;;;;;;;10.70;5.80;;;24.20;94.90;;;;;;5052962;28;20041;-84
2023/06/10 09:22:28;;;;;;;12.60;6.10;;;24.40;94.90;;;;;;5051505;28;20048;-84
2023/06/10 09:25:08;;;;;;;11.57;6.25;;;24.30;94.50;;;;;;5052873;28;20044;-84
2023/06/10 09:27:44;;;;;;;11.52;5.82;;;24.60;93.70;;;;;;5052724;28;20429;-84
2023/06/10 09:30:10;;;;;;;11.02;5.93;;;24.70;93.80;;;;;;5052979;28;20493;-84
2023/06/10 09:32:39;;;;;;;11.80;5.40;;;24.70;93.90;;;;;;5052257;28;20416;-84
2023/06/10 09:35:09;;;;;;;10.63;5.60;;;24.90;93.50;;;;;;5053439;28;20040;-83
2023/06/10 09:37:38;;;;;;;13.38;5.38;;;25.00;93.60;;;;;;5053003;28;20045;-84
2023/06/10 09:40:05;;;;;;;11.65;5.60;;;25.30;93.60;;;;;;5051947;28;20091;-84
2023/06/10 09:42:35;;;;;;;11.18;5.40;;;25.40;93.00;;;;;;5051316;28;20049;-84
2023/06/10 09:45:03;;;;;;;9.30;4.90;;;25.50;92.50;;;;;;5053367;28;20044;-83
2023/06/10 09:47:28;;;;;;;11.80;5.40;;;25.60;92.30;;;;;;5052947;28;20037;-84
2023/06/10 09:49:54;;;;;;;12.30;5.43;;;25.50;91.80;;;;;;5051180;28;20048;-84
2023/06/10 09:52:25;;;;;;;12.48;5.13;;;25.40;91.70;;;;;;5052981;28;20084;-84
2023/06/10 09:55:10;;;;;;;11.07;4.90;;;25.40;91.80;;;;;;5053447;28;20041;-84
2023/06/10 09:57:41;;;;;;;9.88;4.55;;;25.70;91.00;;;;;;5052526;28;20483;-84
2023/06/10 10:00:11;;;;;;;10.10;4.70;;;25.80;91.00;;;;;;5051454;28;20055;-84
2023/06/10 10:02:49;;;;;;;9.88;4.35;;;25.80;90.00;;;;;;5053035;28;20497;-84
2023/06/10 10:05:16;;;;;;;8.88;4.00;;;25.90;89.20;;;;;;5050664;28;20568;-84
2023/06/10 10:07:43;;;;;;;10.90;4.03;;;26.20;89.20;;;;;;5053095;28;20043;-84
2023/06/10 10:10:10;;;;;;;8.85;3.92;;;26.40;88.60;;;;;;5051266;28;20099;-84
2023/06/10 10:12:37;;;;;;;9.38;4.00;;;26.60;87.10;;;;;;5052033;28;20539;-84
2023/06/10 10:15:05;;;;;;;9.30;4.10;;;26.70;86.70;;;;;;5051450;28;20049;-84
2023/06/10 10:17:33;;;;;;;8.77;4.07;;;26.80;86.70;;;;;;5052268;28;20041;-84
2023/06/10 10:20:04;;;;;;;10.77;4.05;;;27.00;85.40;;;;;;5051606;28;20084;-84
2023/06/10 10:22:36;;;;;;;9.82;3.97;;;27.10;85.00;;;;;;5052652;28;20477;-84
2023/06/10 10:25:05;;;;;;;8.90;3.95;;;27.20;84.60;;;;;;5050769;28;20073;-85
2023/06/10 10:27:36;;;;;;;13.45;3.83;;;27.20;84.70;;;;;;5051081;28;20052;-85
2023/06/10 10:30:08;;;;;;;9.05;4.05;;;27.30;85.30;;;;;;5052750;28;20057;-84
2023/06/10 10:33:04;;;;;;;9.35;3.95;;;27.50;84.90;;;;;;5050598;28;20099;-84
2023/06/10 10:35:32;;;;;;;9.23;4.35;;;27.40;82.70;;;;;;5051227;28;20064;-84
2023/06/10 10:37:58;;;;;;;11.70;3.90;;;27.40;83.30;;;;;;5051465;28;20068;-84
2023/06/10 10:40:26;;;;;;;9.55;4.18;;;27.50;83.20;;;;;;5051711;28;20048;-84
2023/06/10 10:42:53;;;;;;;9.40;4.00;;;27.40;82.10;;;;;;5051444;28;20397;-84
2023/06/10 10:45:21;;;;;;;9.60;3.70;;;27.60;82.00;;;;;;5052602;28;20045;-84
2023/06/10 10:47:52;;;;;;;8.38;3.60;;;27.70;80.80;;;;;;5051533;28;20086;-84
2023/06/10 10:50:19;;;;;;;10.35;4.10;;;27.80;79.20;;;;;;5055406;28;20101;-83
2023/06/10 10:52:53;;;;;;;8.23;3.70;;;27.80;78.90;;;;;;5054731;28;20494;-84
2023/06/10 10:55:19;;;;;;;10.43;3.60;;;28.00;79.20;;;;;;5056638;28;20398;-84
2023/06/10 10:57:45;;;;;;;8.55;3.35;;;28.20;78.00;;;;;;5056684;28;20468;-84
2023/06/10 11:00:11;;;;;;;8.43;3.50;;;28.20;76.70;;;;;;5054499;28;20101;-84
2023/06/10 11:02:45;;;;;;;8.77;3.60;;;28.20;76.00;;;;;;5056346;28;20041;-84
2023/06/10 11:05:14;;;;;;;9.10;3.67;;;28.20;76.20;;;;;;5054873;28;20072;-83
2023/06/10 11:07:40;;;;;;;8.02;3.45;;;28.30;75.90;;;;;;5055691;28;20045;-84
2023/06/10 11:10:13;;;;;;;9.18;3.22;;;28.60;76.00;;;;;;5056474;28;20037;-84
2023/06/10 11:12:52;;;;;;;8.43;3.20;;;28.60;74.10;;;;;;5054850;28;20515;-83
2023/06/10 11:15:29;;;;;;;8.57;3.80;;;28.70;73.20;;;;;;5054154;28;20045;-83
2023/06/10 11:18:10;;;;;;;8.65;3.30;;;28.80;73.60;;;;;;5056469;28;20041;-83
2023/06/10 11:20:54;;;;;;;8.85;3.35;;;29.00;72.80;;;;;;5055493;28;20061;-84
2023/06/10 11:23:31;;;;;;;8.13;3.25;;;29.10;71.70;;;;;;5056047;28;20057;-84
2023/06/10 11:26:15;;;;;;;8.15;3.00;;;29.10;69.50;;;;;;5056294;28;20052;-83
2023/06/10 11:29:02;;;;;;;9.05;2.95;;;29.20;68.40;;;;;;5055705;28;20080;-83
2023/06/10 11:31:32;;;;;;;9.50;3.45;;;29.30;68.90;;;;;;5055570;28;20136;-83
2023/06/10 11:34:06;;;;;;;7.97;3.33;;;29.40;70.20;;;;;;5056181;28;20033;-83
2023/06/10 11:36:33;;;;;;;9.57;3.33;;;29.50;69.40;;;;;;5054068;28;20049;-83
2023/06/10 11:39:04;;;;;;;9.63;3.40;;;29.60;69.80;;;;;;5055948;28;20045;-84
2023/06/10 11:41:31;;;;;;;7.90;3.05;;;29.80;69.70;;;;;;5054010;28;20179;-83
2023/06/10 11:44:11;;;;;;;8.23;3.30;;;29.90;68.80;;;;;;5053863;28;20068;-83
2023/06/10 11:46:36;;;;;;;7.90;3.30;;;30.00;68.50;;;;;;5054345;28;20056;-83
2023/06/10 11:49:05;;;;;;;9.23;3.40;;;30.00;67.20;;;;;;5053856;28;20049;-83
2023/06/10 11:51:34;;;;;;;8.32;3.50;;;29.90;67.60;;;;;;5055705;28;20053;-83
2023/06/10 11:54:01;;;;;;;7.78;3.25;;;30.00;69.00;;;;;;5055646;28;20048;-83
2023/06/10 11:56:27;;;;;;;8.57;3.63;;;30.30;68.60;;;;;;5054678;28;20049;-84
2023/06/10 11:58:58;;;;;;;8.25;3.25;;;30.30;67.90;;;;;;5053929;28;20501;-84
2023/06/10 12:01:25;;;;;;;8.75;3.20;;;30.20;67.50;;;;;;5054970;28;20115;-83
2023/06/10 12:04:21;;;;;;;8.90;3.40;;;30.20;67.90;;;;;;5054662;28;20455;-83
2023/06/10 12:06:52;;;;;;;8.27;3.30;;;30.30;67.90;;;;;;5052873;28;20060;-83
2023/06/10 12:09:30;;;;;;;10.50;3.60;;;30.60;66.90;;;;;;5055267;28;20037;-83
2023/06/10 12:12:02;;;;;;;8.32;3.40;;;30.80;67.30;;;;;;5054616;28;20047;-83
2023/06/10 12:14:49;;;;;;;8.43;3.55;;;30.60;66.00;;;;;;5055233;28;20068;-83
2023/06/10 12:17:15;;;;;;;8.27;3.22;;;30.70;65.90;;;;;;5052595;28;20041;-83
2023/06/10 12:19:41;;;;;;;9.07;3.53;;;30.60;65.70;;;;;;5055324;28;20037;-83
2023/06/10 12:22:06;;;;;;;7.90;3.10;;;30.70;66.70;;;;;;5053501;28;20095;-83
2023/06/10 12:24:32;;;;;;;8.27;3.33;;;30.90;65.90;;;;;;5063218;28;20053;-82
2023/06/10 12:26:58;;;;;;;8.73;3.45;;;30.90;65.20;;;;;;5074773;28;20033;-82
2023/06/10 12:29:25;;;;;;;8.73;3.45;;;31.00;64.70;;;;;;5057552;28;20058;-83
2023/06/10 12:31:58;;;;;;;8.52;3.05;;;31.30;64.10;;;;;;5053620;28;20104;-83
2023/06/10 12:34:35;;;;;;;10.57;3.40;;;31.30;61.60;;;;;;5053417;28;20124;-83
2023/06/10 12:37:03;;;;;;;8.18;3.40;;;31.50;62.30;;;;;;5055177;28;20041;-83
2023/06/10 12:39:30;;;;;;;7.43;3.38;;;31.60;61.60;;;;;;5052234;28;20041;-83
2023/06/10 12:41:56;;;;;;;8.52;3.40;;;31.70;61.00;;;;;;5053515;28;20194;-83